createdAt,value
2023-02-03T00:01:43.961Z,7.52
2023-02-03T00:06:45.887Z,7.53
2023-02-03T00:11:50.047Z,7.54
2023-02-03T00:16:51.487Z,7.51
2023-02-03T00:21:54.948Z,7.60
2023-02-03T00:26:56.384Z,7.60
2023-02-03T00:31:58.983Z,7.54
2023-02-03T00:37:00.509Z,7.59
2023-02-03T00:42:01.928Z,7.61
2023-02-03T00:47:03.521Z,7.62
2023-02-03T00:52:05.141Z,7.62
2023-02-03T00:57:06.470Z,7.67
2023-02-03T01:02:07.951Z,7.61
2023-02-03T01:07:10.037Z,7.69
2023-02-03T01:12:11.418Z,7.66
2023-02-03T01:17:12.767Z,7.67
2023-02-03T01:22:14.148Z,7.62
2023-02-03T01:27:15.526Z,7.65
2023-02-03T01:32:19.915Z,7.63
2023-02-03T01:37:21.398Z,7.67
2023-02-03T01:42:22.769Z,7.63
2023-02-03T01:47:46.468Z,7.58
2023-02-03T01:52:52.608Z,7.54
2023-02-03T01:58:03.799Z,7.57
2023-02-03T02:03:07.169Z,7.68
2023-02-03T02:08:09.458Z,7.59
2023-02-03T02:13:12.479Z,7.59
2023-02-03T02:18:54.307Z,7.58
2023-02-03T02:23:55.580Z,7.63
2023-02-03T02:29:34.194Z,7.64
2023-02-03T02:34:58.074Z,7.58
2023-02-03T02:40:27.806Z,7.63
2023-02-03T02:45:45.055Z,7.65
2023-02-03T02:50:49.476Z,7.68
2023-02-03T02:55:53.569Z,7.67
2023-02-03T03:00:54.931Z,7.70
2023-02-03T03:06:01.598Z,7.69
2023-02-03T03:11:03.405Z,7.72
2023-02-03T03:16:09.170Z,7.74
2023-02-03T03:21:16.260Z,7.70
2023-02-03T03:26:28.752Z,7.70
2023-02-03T03:31:30.717Z,7.74
2023-02-03T03:36:48.329Z,7.77
2023-02-03T03:41:56.299Z,7.85
2023-02-03T03:47:14.333Z,7.81
2023-02-03T03:52:21.714Z,7.84
2023-02-03T03:57:31.872Z,7.86
2023-02-03T04:02:35.030Z,7.82
2023-02-03T04:07:43.109Z,7.80
2023-02-03T04:12:44.611Z,7.81
2023-02-03T04:17:46.026Z,7.86
2023-02-03T04:22:47.423Z,7.80
2023-02-03T04:27:49.076Z,7.84
2023-02-03T04:32:50.526Z,7.84
2023-02-03T04:37:51.901Z,7.81
2023-02-03T04:42:53.367Z,7.80
2023-02-03T04:47:54.872Z,7.86
2023-02-03T04:52:58.761Z,7.82
2023-02-03T04:58:01.005Z,7.89
2023-02-03T05:03:02.408Z,7.96
2023-02-03T05:08:03.943Z,7.94
2023-02-03T05:13:05.311Z,7.91
2023-02-03T05:18:06.862Z,7.86
2023-02-03T05:23:08.234Z,7.90
2023-02-03T05:28:09.681Z,7.89
2023-02-03T05:33:11.084Z,7.83
2023-02-03T05:38:12.504Z,7.83
2023-02-03T05:43:13.935Z,7.82
2023-02-03T05:48:15.344Z,7.85
2023-02-03T05:53:16.748Z,7.77
2023-02-03T05:58:18.127Z,7.78
2023-02-03T06:03:19.591Z,7.77
2023-02-03T06:08:20.949Z,7.77
2023-02-03T06:13:22.332Z,7.76
2023-02-03T06:18:23.695Z,7.74
2023-02-03T06:23:25.214Z,7.73
2023-02-03T06:28:27.137Z,7.72
2023-02-03T06:33:35.925Z,7.73
2023-02-03T06:38:37.607Z,7.65
2023-02-03T06:43:39.133Z,7.67
2023-02-03T06:48:40.508Z,7.64
2023-02-03T06:53:41.852Z,7.61
2023-02-03T06:58:44.826Z,7.59
2023-02-03T07:03:46.991Z,7.61
2023-02-03T07:08:48.397Z,7.59
2023-02-03T07:13:51.681Z,7.58
2023-02-03T07:18:54.230Z,7.63
2023-02-03T07:23:56.029Z,7.59
2023-02-03T07:29:00.349Z,7.63
2023-02-03T07:34:05.152Z,7.64
2023-02-03T07:39:06.608Z,7.62
2023-02-03T07:44:09.459Z,7.65
2023-02-03T07:49:15.332Z,7.69
2023-02-03T07:54:18.828Z,7.67
2023-02-03T07:59:20.282Z,7.66
2023-02-03T08:04:22.848Z,7.75
2023-02-03T08:09:24.320Z,7.79
2023-02-03T08:14:25.739Z,7.85
2023-02-03T08:19:27.665Z,7.96
2023-02-03T08:24:29.508Z,8.02
2023-02-03T08:29:32.240Z,8.03
2023-02-03T08:34:34.204Z,8.16
2023-02-03T08:39:36.020Z,8.17
2023-02-03T08:44:39.132Z,8.17
2023-02-03T08:49:40.973Z,8.28
2023-02-03T08:54:43.666Z,8.32
2023-02-03T08:59:48.856Z,8.28
2023-02-03T09:04:53.019Z,8.36
2023-02-03T09:09:54.741Z,8.39
2023-02-03T09:14:56.178Z,8.40
2023-02-03T09:19:57.767Z,8.44
2023-02-03T09:25:01.435Z,8.46
2023-02-03T09:30:03.444Z,8.50
2023-02-03T09:35:05.329Z,8.60
2023-02-03T09:40:07.377Z,8.68
2023-02-03T09:45:24.571Z,8.79
2023-02-03T09:50:30.274Z,8.71
2023-02-03T09:55:45.148Z,8.80
2023-02-03T10:01:11.740Z,8.79
2023-02-03T10:06:31.555Z,8.84
2023-02-03T10:11:38.982Z,8.85
2023-02-03T10:17:04.724Z,8.84
2023-02-03T10:22:15.315Z,8.82
2023-02-03T10:27:21.168Z,8.96
2023-02-03T10:32:26.278Z,8.97
2023-02-03T10:37:33.779Z,9.02
2023-02-03T10:42:56.945Z,8.97
2023-02-03T10:47:59.582Z,9.05
2023-02-03T10:53:24.620Z,9.00
2023-02-03T10:58:29.287Z,9.02
2023-02-03T11:03:33.268Z,9.12
2023-02-03T11:08:37.624Z,9.17
2023-02-03T11:13:40.340Z,9.20
2023-02-03T11:18:44.275Z,9.25
2023-02-03T11:23:53.948Z,9.33
2023-02-03T11:29:21.165Z,9.36
2023-02-03T11:34:31.859Z,9.40
2023-02-03T11:39:37.466Z,9.47
2023-02-03T11:44:41.086Z,9.49
2023-02-03T11:50:14.569Z,9.57
2023-02-03T11:55:46.933Z,9.65
2023-02-03T12:01:22.755Z,9.68
2023-02-03T12:06:37.177Z,9.69
2023-02-03T12:11:53.546Z,9.62
2023-02-03T12:17:12.842Z,9.60
2023-02-03T12:22:22.999Z,9.55
2023-02-03T12:27:44.586Z,9.50
2023-02-03T12:32:54.206Z,9.47
2023-02-03T12:38:07.420Z,9.07
2023-02-03T12:43:21.325Z,9.01
2023-02-03T12:48:29.380Z,9.03
2023-02-03T12:53:35.726Z,8.86
2023-02-03T12:58:41.907Z,8.76
2023-02-03T13:03:52.737Z,8.57
2023-02-03T13:09:05.843Z,8.44
2023-02-03T13:14:29.161Z,8.32
2023-02-03T13:19:42.232Z,8.31
2023-02-03T13:24:51.353Z,8.34
2023-02-03T13:30:20.287Z,8.37
2023-02-03T13:35:40.320Z,8.41
2023-02-03T13:41:11.363Z,8.44
2023-02-03T13:46:27.497Z,8.43
2023-02-03T13:51:38.155Z,8.44
2023-02-03T13:56:39.991Z,8.44
2023-02-03T14:01:42.676Z,8.44
2023-02-03T14:06:45.567Z,8.46
2023-02-03T14:11:50.639Z,8.44
2023-02-03T14:16:55.200Z,8.45
2023-02-03T14:22:08.491Z,8.48
2023-02-03T14:27:22.895Z,8.48
2023-02-03T14:32:24.328Z,8.46
2023-02-03T14:37:29.111Z,8.47
2023-02-03T14:42:49.391Z,8.49
2023-02-03T14:48:26.187Z,8.48
2023-02-03T14:53:45.579Z,8.49
2023-02-03T14:58:51.850Z,8.42
2023-02-03T15:04:11.314Z,8.34
2023-02-03T15:09:37.696Z,8.35
2023-02-03T15:14:39.155Z,8.31
2023-02-03T15:19:42.699Z,8.29
2023-02-03T15:24:44.136Z,8.27
2023-02-03T15:29:45.544Z,8.27
2023-02-03T15:34:49.368Z,8.21
2023-02-03T15:40:07.054Z,8.19
2023-02-03T15:45:28.620Z,8.14
2023-02-03T15:50:39.506Z,8.09
2023-02-03T15:55:47.859Z,8.06
2023-02-03T16:00:53.410Z,8.05
2023-02-03T16:05:55.348Z,8.05
2023-02-03T16:10:56.854Z,7.97
2023-02-03T16:16:16.211Z,7.89
2023-02-03T16:21:31.932Z,7.89
2023-02-03T16:26:36.608Z,7.84
2023-02-03T16:32:02.019Z,7.80
2023-02-03T16:38:01.962Z,7.74
2023-02-03T16:43:22.833Z,7.79
2023-02-03T16:48:43.251Z,7.78
2023-02-03T16:53:48.287Z,7.74
2023-02-03T16:58:52.469Z,7.61
2023-02-03T17:03:53.912Z,7.62
2023-02-03T17:08:57.761Z,7.53
2023-02-03T17:14:02.168Z,7.54
2023-02-03T17:19:03.594Z,7.52
2023-02-03T17:24:05.563Z,7.42
2023-02-03T17:29:07.046Z,7.46
2023-02-03T17:34:08.512Z,7.39
2023-02-03T17:55:07.893Z,7.24
2023-02-03T18:00:10.613Z,7.22
2023-02-03T18:05:12.176Z,7.17
2023-02-03T18:10:15.102Z,7.13
2023-02-03T18:15:19.526Z,7.08
2023-02-03T18:20:22.388Z,7.04
2023-02-03T18:25:23.879Z,7.01
2023-02-03T18:30:25.378Z,7.00
2023-02-03T18:35:27.000Z,6.95
2023-02-03T18:40:29.292Z,6.99
2023-02-03T18:45:34.353Z,6.90
2023-02-03T18:50:42.721Z,6.93
2023-02-03T18:55:44.662Z,6.89
2023-02-03T19:00:46.118Z,6.94
2023-02-03T19:05:47.672Z,6.88
2023-02-03T19:10:54.071Z,6.95
2023-02-03T19:15:55.588Z,6.89
2023-02-03T19:20:57.109Z,6.86
2023-02-03T19:25:58.806Z,6.90
2023-02-03T19:31:14.457Z,6.82
2023-02-03T19:36:15.956Z,6.84
2023-02-03T19:41:17.359Z,6.84
2023-02-03T19:46:23.742Z,6.78
2023-02-03T19:51:25.189Z,6.79
2023-02-03T19:56:26.749Z,6.91
2023-02-03T20:01:29.638Z,6.95
2023-02-03T20:06:33.907Z,6.96
2023-02-03T20:11:35.683Z,6.97
2023-02-03T20:16:37.123Z,7.06
2023-02-03T20:21:38.521Z,7.06
2023-02-03T20:26:40.483Z,7.08
2023-02-03T20:31:42.032Z,7.01
2023-02-03T20:36:45.662Z,7.04
2023-02-03T20:41:49.783Z,7.01
2023-02-03T20:46:58.333Z,7.04
2023-02-03T20:52:00.055Z,7.03
2023-02-03T20:57:01.969Z,7.04
2023-02-03T21:02:10.952Z,7.01
2023-02-03T21:07:19.076Z,7.11
2023-02-03T21:12:20.852Z,7.10
2023-02-03T21:17:25.783Z,7.13
2023-02-03T21:22:30.296Z,7.10
2023-02-03T21:27:35.893Z,7.11
2023-02-03T21:32:39.483Z,7.09
2023-02-03T21:37:41.581Z,7.05
2023-02-03T21:42:43.075Z,7.06
2023-02-03T21:47:48.359Z,7.10
2023-02-03T21:52:49.857Z,7.10
2023-02-03T21:57:54.241Z,7.01
2023-02-03T22:02:59.530Z,7.04
2023-02-03T22:08:13.932Z,7.00
2023-02-03T22:13:16.440Z,7.00
2023-02-03T22:18:17.959Z,6.98
2023-02-03T22:23:19.829Z,6.93
2023-02-03T22:28:21.319Z,6.92
2023-02-03T22:33:22.996Z,6.82
2023-02-03T22:38:24.516Z,6.72
2023-02-03T22:43:26.539Z,6.73
2023-02-03T22:48:29.761Z,6.66
2023-02-03T22:53:31.349Z,6.62
2023-02-03T22:58:32.999Z,6.70
2023-02-03T23:03:34.698Z,6.68
2023-02-03T23:08:37.966Z,6.67
2023-02-03T23:13:39.384Z,6.76
2023-02-03T23:18:40.783Z,6.78
2023-02-03T23:23:42.360Z,6.86
2023-02-03T23:28:43.921Z,6.77
2023-02-03T23:34:05.297Z,6.82
2023-02-03T23:39:07.358Z,6.78
2023-02-03T23:44:09.342Z,6.68
2023-02-03T23:49:10.752Z,6.74
2023-02-03T23:54:12.545Z,6.76
2023-02-03T23:59:13.938Z,6.69
